CEB435 RPVM-RPMZ
Flight info
| Callsign | CEB435 |
|---|---|
| Flight time | 0h 45m |
| Altitude | 30000 |
| Route | ALDIN4P ALDIN G578 PARAL PARAL2E |
| Aircraft | A320/M-SDE3FGHIRWY/LB1 |
Departure
| Time | 2026-05-08 07:07 |
|---|---|
| Airport | Mactan Cebu International Airport (RPVM) |
Arrival
| Time | 2026-05-08 07:53 |
|---|---|
| Airport | Zamboanga International Airport (RPMZ) |
| Time | Latitude | Longitude | Altitude | Speed | Heading |
|---|---|---|---|---|---|
| 2026-05-08 06:34 | 10.31462 | 123.98119 | 36 ft | 0 kts | 315° |
| 2026-05-08 06:53 | 10.31451 | 123.98130 | 36 ft | 2 kts | 315° |
| 2026-05-08 06:53 | 10.31441 | 123.98141 | 36 ft | 2 kts | 315° |
| 2026-05-08 06:53 | 10.31430 | 123.98151 | 36 ft | 2 kts | 315° |
| 2026-05-08 06:54 | 10.31419 | 123.98162 | 36 ft | 2 kts | 309° |
| 2026-05-08 06:54 | 10.31414 | 123.98176 | 36 ft | 2 kts | 275° |
| 2026-05-08 06:54 | 10.31415 | 123.98191 | 36 ft | 2 kts | 247° |
| 2026-05-08 06:54 | 10.31423 | 123.98203 | 36 ft | 0 kts | 221° |
| 2026-05-08 06:55 | 10.31424 | 123.98205 | 36 ft | 0 kts | 219° |
| 2026-05-08 06:57 | 10.31422 | 123.98202 | 36 ft | 1 kts | 222° |
| 2026-05-08 06:58 | 10.31413 | 123.98193 | 36 ft | 2 kts | 224° |
| 2026-05-08 06:58 | 10.31398 | 123.98179 | 36 ft | 3 kts | 225° |
| 2026-05-08 06:58 | 10.31377 | 123.98158 | 36 ft | 4 kts | 226° |
| 2026-05-08 06:58 | 10.31351 | 123.98131 | 36 ft | 5 kts | 225° |
| 2026-05-08 06:59 | 10.31322 | 123.98100 | 36 ft | 6 kts | 224° |
| 2026-05-08 06:59 | 10.31291 | 123.98071 | 36 ft | 5 kts | 224° |
| 2026-05-08 06:59 | 10.31262 | 123.98041 | 36 ft | 6 kts | 225° |
| 2026-05-08 06:59 | 10.31230 | 123.98009 | 36 ft | 7 kts | 225° |
| 2026-05-08 07:00 | 10.31192 | 123.97971 | 36 ft | 8 kts | 224° |
| 2026-05-08 07:00 | 10.31147 | 123.97926 | 36 ft | 9 kts | 225° |
| 2026-05-08 07:00 | 10.31096 | 123.97874 | 36 ft | 10 kts | 225° |
| 2026-05-08 07:00 | 10.31039 | 123.97818 | 36 ft | 11 kts | 225° |
| 2026-05-08 07:01 | 10.30979 | 123.97756 | 36 ft | 12 kts | 225° |
| 2026-05-08 07:01 | 10.30919 | 123.97694 | 36 ft | 9 kts | 225° |
| 2026-05-08 07:01 | 10.30889 | 123.97665 | 36 ft | 6 kts | 224° |
| 2026-05-08 07:01 | 10.30855 | 123.97632 | 36 ft | 7 kts | 225° |
| 2026-05-08 07:02 | 10.30815 | 123.97591 | 36 ft | 8 kts | 224° |
| 2026-05-08 07:02 | 10.30763 | 123.97539 | 36 ft | 11 kts | 225° |
| 2026-05-08 07:02 | 10.30700 | 123.97476 | 36 ft | 12 kts | 225° |
| 2026-05-08 07:02 | 10.30635 | 123.97411 | 36 ft | 13 kts | 224° |
| 2026-05-08 07:03 | 10.30564 | 123.97340 | 36 ft | 14 kts | 225° |
| 2026-05-08 07:03 | 10.30485 | 123.97263 | 36 ft | 15 kts | 223° |
| 2026-05-08 07:03 | 10.30406 | 123.97182 | 36 ft | 16 kts | 223° |
| 2026-05-08 07:03 | 10.30324 | 123.97101 | 36 ft | 16 kts | 224° |
| 2026-05-08 07:04 | 10.30240 | 123.97016 | 36 ft | 17 kts | 224° |
| 2026-05-08 07:04 | 10.30154 | 123.96931 | 36 ft | 17 kts | 224° |
| 2026-05-08 07:04 | 10.30066 | 123.96842 | 37 ft | 17 kts | 225° |
| 2026-05-08 07:04 | 10.29977 | 123.96753 | 37 ft | 18 kts | 225° |
| 2026-05-08 07:05 | 10.29921 | 123.96703 | 37 ft | 5 kts | 200° |
| 2026-05-08 07:05 | 10.29878 | 123.96713 | 36 ft | 7 kts | 143° |
| 2026-05-08 07:05 | 10.29840 | 123.96750 | 37 ft | 8 kts | 135° |
| 2026-05-08 07:05 | 10.29798 | 123.96794 | 36 ft | 9 kts | 134° |
| 2026-05-08 07:06 | 10.29751 | 123.96843 | 36 ft | 10 kts | 135° |
| 2026-05-08 07:06 | 10.29717 | 123.96890 | 36 ft | 4 kts | 84° |
| 2026-05-08 07:06 | 10.29737 | 123.96922 | 36 ft | 5 kts | 45° |
| 2026-05-08 07:06 | 10.29759 | 123.96942 | 36 ft | 15 kts | 44° |
| 2026-05-08 07:07 | 10.30012 | 123.97196 | 36 ft | 84 kts | 45° |
| 2026-05-08 07:07 | 10.30576 | 123.97762 | 37 ft | 141 kts | 44° |
| 2026-05-08 07:07 | 10.31386 | 123.98552 | 264 ft | 168 kts | 42° |
| 2026-05-08 07:07 | 10.32172 | 123.99358 | 949 ft | 159 kts | 47° |
| 2026-05-08 07:08 | 10.32901 | 124.00155 | 1641 ft | 152 kts | 46° |
| 2026-05-08 07:08 | 10.33605 | 124.00943 | 2144 ft | 153 kts | 61° |
| 2026-05-08 07:08 | 10.33699 | 124.02032 | 2474 ft | 168 kts | 109° |
| 2026-05-08 07:08 | 10.33029 | 124.03067 | 2797 ft | 186 kts | 124° |
| 2026-05-08 07:09 | 10.32218 | 124.04166 | 3132 ft | 202 kts | 123° |
| 2026-05-08 07:09 | 10.31351 | 124.05391 | 3407 ft | 224 kts | 122° |
| 2026-05-08 07:09 | 10.30414 | 124.06749 | 3767 ft | 243 kts | 122° |
| 2026-05-08 07:09 | 10.29424 | 124.08203 | 4183 ft | 260 kts | 122° |
| 2026-05-08 07:10 | 10.28385 | 124.09735 | 4838 ft | 266 kts | 122° |
| 2026-05-08 07:10 | 10.27695 | 124.10757 | 5359 ft | 267 kts | 122° |
| 2026-05-08 07:10 | 10.26300 | 124.12823 | 6436 ft | 268 kts | 122° |
| 2026-05-08 07:10 | 10.25241 | 124.14397 | 7175 ft | 271 kts | 122° |
| 2026-05-08 07:11 | 10.24174 | 124.15987 | 7844 ft | 276 kts | 122° |
| 2026-05-08 07:11 | 10.23094 | 124.17593 | 8521 ft | 280 kts | 122° |
| 2026-05-08 07:11 | 10.21988 | 124.19239 | 9182 ft | 284 kts | 122° |
| 2026-05-08 07:11 | 10.20851 | 124.20859 | 9817 ft | 289 kts | 129° |
| 2026-05-08 07:12 | 10.19232 | 124.22103 | 10369 ft | 300 kts | 153° |
| 2026-05-08 07:12 | 10.17145 | 124.22598 | 10661 ft | 321 kts | 178° |
| 2026-05-08 07:12 | 10.14843 | 124.22262 | 10947 ft | 339 kts | 190° |
| 2026-05-08 07:12 | 10.12501 | 124.21757 | 11201 ft | 354 kts | 190° |
| 2026-05-08 07:13 | 10.10027 | 124.21232 | 11456 ft | 368 kts | 190° |
| 2026-05-08 07:13 | 10.07461 | 124.20697 | 11804 ft | 378 kts | 189° |
| 2026-05-08 07:13 | 10.04882 | 124.20167 | 12315 ft | 381 kts | 189° |
| 2026-05-08 07:13 | 10.02256 | 124.19635 | 12834 ft | 384 kts | 189° |
| 2026-05-08 07:14 | 9.99638 | 124.19109 | 13341 ft | 387 kts | 189° |
| 2026-05-08 07:14 | 9.96984 | 124.18574 | 13825 ft | 389 kts | 189° |
| 2026-05-08 07:14 | 9.94294 | 124.18033 | 14281 ft | 393 kts | 189° |
| 2026-05-08 07:14 | 9.91592 | 124.17491 | 14745 ft | 395 kts | 189° |
| 2026-05-08 07:15 | 9.88875 | 124.16946 | 15198 ft | 398 kts | 189° |
| 2026-05-08 07:15 | 9.86130 | 124.16396 | 15633 ft | 401 kts | 189° |
| 2026-05-08 07:15 | 9.83385 | 124.15809 | 16047 ft | 404 kts | 193° |
| 2026-05-08 07:15 | 9.80748 | 124.14803 | 16426 ft | 409 kts | 205° |
| 2026-05-08 07:16 | 9.78306 | 124.13272 | 16816 ft | 413 kts | 216° |
| 2026-05-08 07:16 | 9.76053 | 124.11430 | 17211 ft | 415 kts | 219° |
| 2026-05-08 07:16 | 9.73822 | 124.09525 | 17582 ft | 418 kts | 219° |
| 2026-05-08 07:16 | 9.71609 | 124.07629 | 17940 ft | 420 kts | 219° |
| 2026-05-08 07:17 | 9.69363 | 124.05719 | 18295 ft | 423 kts | 219° |
| 2026-05-08 07:17 | 9.67091 | 124.03797 | 18615 ft | 426 kts | 219° |
| 2026-05-08 07:17 | 9.64805 | 124.01870 | 18860 ft | 430 kts | 218° |
| 2026-05-08 07:17 | 9.62486 | 123.99920 | 19300 ft | 429 kts | 218° |
| 2026-05-08 07:18 | 9.60188 | 123.97988 | 19673 ft | 430 kts | 218° |
| 2026-05-08 07:18 | 9.57877 | 123.96049 | 19989 ft | 433 kts | 218° |
| 2026-05-08 07:18 | 9.55561 | 123.94106 | 20307 ft | 435 kts | 218° |
| 2026-05-08 07:18 | 9.53226 | 123.92147 | 20616 ft | 437 kts | 218° |
| 2026-05-08 07:19 | 9.50874 | 123.90175 | 20937 ft | 439 kts | 218° |
| 2026-05-08 07:19 | 9.48504 | 123.88187 | 21239 ft | 441 kts | 218° |
| 2026-05-08 07:19 | 9.46140 | 123.86204 | 21535 ft | 443 kts | 218° |
| 2026-05-08 07:19 | 9.43759 | 123.84207 | 21831 ft | 445 kts | 218° |
| 2026-05-08 07:20 | 9.41368 | 123.82204 | 22101 ft | 447 kts | 218° |
| 2026-05-08 07:20 | 9.39775 | 123.80866 | 22291 ft | 448 kts | 219° |
| 2026-05-08 07:20 | 9.36830 | 123.77828 | 22661 ft | 452 kts | 230° |
| 2026-05-08 07:20 | 9.35040 | 123.75235 | 22949 ft | 455 kts | 238° |
| 2026-05-08 07:21 | 9.33516 | 123.72424 | 23242 ft | 456 kts | 242° |
| 2026-05-08 07:21 | 9.32062 | 123.69578 | 23537 ft | 457 kts | 242° |
| 2026-05-08 07:21 | 9.30601 | 123.66695 | 23806 ft | 459 kts | 242° |
| 2026-05-08 07:21 | 9.29139 | 123.63824 | 24082 ft | 460 kts | 242° |
| 2026-05-08 07:22 | 9.27673 | 123.60965 | 24347 ft | 461 kts | 242° |
| 2026-05-08 07:22 | 9.26182 | 123.58072 | 24619 ft | 462 kts | 242° |
| 2026-05-08 07:22 | 9.24702 | 123.55207 | 24846 ft | 464 kts | 242° |
| 2026-05-08 07:22 | 9.23193 | 123.52290 | 25110 ft | 465 kts | 242° |
| 2026-05-08 07:23 | 9.21685 | 123.49377 | 25361 ft | 467 kts | 242° |
| 2026-05-08 07:23 | 9.20193 | 123.46499 | 25599 ft | 468 kts | 242° |
| 2026-05-08 07:23 | 9.18671 | 123.43560 | 25834 ft | 469 kts | 242° |
| 2026-05-08 07:23 | 9.17161 | 123.40646 | 26049 ft | 471 kts | 242° |
| 2026-05-08 07:24 | 9.15638 | 123.37709 | 26262 ft | 472 kts | 242° |
| 2026-05-08 07:24 | 9.14105 | 123.34753 | 26504 ft | 473 kts | 241° |
| 2026-05-08 07:24 | 9.12374 | 123.31960 | 26673 ft | 474 kts | 231° |
| 2026-05-08 07:24 | 9.10108 | 123.29528 | 26866 ft | 473 kts | 219° |
| 2026-05-08 07:25 | 9.07448 | 123.27601 | 27068 ft | 471 kts | 209° |
| 2026-05-08 07:25 | 9.04608 | 123.25954 | 27285 ft | 472 kts | 208° |
| 2026-05-08 07:25 | 8.98820 | 123.22704 | 27624 ft | 475 kts | 207° |
| 2026-05-08 07:26 | 8.95938 | 123.21080 | 27765 ft | 477 kts | 207° |
| 2026-05-08 07:26 | 8.93007 | 123.19421 | 27880 ft | 479 kts | 207° |
| 2026-05-08 07:26 | 8.90111 | 123.17776 | 28067 ft | 479 kts | 208° |
| 2026-05-08 07:26 | 8.87213 | 123.16125 | 28269 ft | 479 kts | 208° |
| 2026-05-08 07:27 | 8.84309 | 123.14469 | 28448 ft | 480 kts | 208° |
| 2026-05-08 07:27 | 8.81371 | 123.12794 | 28617 ft | 480 kts | 208° |
| 2026-05-08 07:27 | 8.78463 | 123.11135 | 28780 ft | 481 kts | 208° |
| 2026-05-08 07:27 | 8.75546 | 123.09472 | 28950 ft | 481 kts | 208° |
| 2026-05-08 07:28 | 8.72632 | 123.07809 | 29113 ft | 481 kts | 208° |
| 2026-05-08 07:28 | 8.69719 | 123.06149 | 29290 ft | 481 kts | 208° |
| 2026-05-08 07:28 | 8.66779 | 123.04473 | 29459 ft | 482 kts | 208° |
| 2026-05-08 07:28 | 8.63878 | 123.02818 | 29627 ft | 482 kts | 208° |
| 2026-05-08 07:29 | 8.60957 | 123.01153 | 29765 ft | 482 kts | 208° |
| 2026-05-08 07:29 | 8.55104 | 122.97815 | 29779 ft | 482 kts | 208° |
| 2026-05-08 07:30 | 8.49231 | 122.94469 | 29778 ft | 482 kts | 208° |
| 2026-05-08 07:30 | 8.43821 | 122.91387 | 29779 ft | 481 kts | 208° |
| 2026-05-08 07:31 | 8.37992 | 122.88069 | 29782 ft | 481 kts | 208° |
| 2026-05-08 07:31 | 8.32127 | 122.84730 | 29781 ft | 481 kts | 208° |
| 2026-05-08 07:32 | 8.26325 | 122.81428 | 29781 ft | 481 kts | 209° |
| 2026-05-08 07:32 | 8.20489 | 122.78110 | 29782 ft | 481 kts | 209° |
| 2026-05-08 07:33 | 8.14632 | 122.74779 | 29788 ft | 480 kts | 209° |
| 2026-05-08 07:33 | 8.08782 | 122.71453 | 29789 ft | 480 kts | 209° |
| 2026-05-08 07:33 | 8.05880 | 122.69804 | 29241 ft | 483 kts | 208° |
| 2026-05-08 07:34 | 8.02941 | 122.68132 | 28290 ft | 485 kts | 208° |
| 2026-05-08 07:34 | 8.00013 | 122.66466 | 27343 ft | 486 kts | 208° |
| 2026-05-08 07:34 | 7.97066 | 122.64792 | 26646 ft | 481 kts | 208° |
| 2026-05-08 07:34 | 7.95139 | 122.63696 | 26204 ft | 477 kts | 208° |
| 2026-05-08 07:35 | 7.91332 | 122.61535 | 25393 ft | 469 kts | 208° |
| 2026-05-08 07:35 | 7.88492 | 122.59921 | 24807 ft | 464 kts | 208° |
| 2026-05-08 07:35 | 7.85679 | 122.58324 | 24236 ft | 458 kts | 207° |
| 2026-05-08 07:35 | 7.82925 | 122.56760 | 23670 ft | 453 kts | 207° |
| 2026-05-08 07:36 | 7.80160 | 122.55191 | 23107 ft | 448 kts | 207° |
| 2026-05-08 07:36 | 7.77488 | 122.53674 | 22567 ft | 444 kts | 207° |
| 2026-05-08 07:36 | 7.74807 | 122.52153 | 22023 ft | 440 kts | 207° |
| 2026-05-08 07:36 | 7.72147 | 122.50646 | 21481 ft | 436 kts | 207° |
| 2026-05-08 07:37 | 7.69478 | 122.49133 | 20924 ft | 433 kts | 207° |
| 2026-05-08 07:37 | 7.66882 | 122.47663 | 20382 ft | 430 kts | 207° |
| 2026-05-08 07:37 | 7.64287 | 122.46192 | 19835 ft | 428 kts | 207° |
| 2026-05-08 07:37 | 7.61700 | 122.44726 | 19286 ft | 425 kts | 207° |
| 2026-05-08 07:38 | 7.59126 | 122.43266 | 18734 ft | 423 kts | 207° |
| 2026-05-08 07:38 | 7.56552 | 122.41808 | 18177 ft | 421 kts | 207° |
| 2026-05-08 07:38 | 7.53999 | 122.40361 | 17621 ft | 419 kts | 207° |
| 2026-05-08 07:38 | 7.51467 | 122.38927 | 17068 ft | 417 kts | 207° |
| 2026-05-08 07:39 | 7.48934 | 122.37492 | 16515 ft | 415 kts | 207° |
| 2026-05-08 07:39 | 7.46438 | 122.36076 | 15967 ft | 413 kts | 207° |
| 2026-05-08 07:39 | 7.43907 | 122.34643 | 15401 ft | 411 kts | 207° |
| 2026-05-08 07:39 | 7.41424 | 122.33236 | 14846 ft | 409 kts | 207° |
| 2026-05-08 07:40 | 7.38967 | 122.31844 | 14297 ft | 407 kts | 207° |
| 2026-05-08 07:40 | 7.36487 | 122.30439 | 13738 ft | 404 kts | 207° |
| 2026-05-08 07:40 | 7.34035 | 122.29050 | 13179 ft | 402 kts | 207° |
| 2026-05-08 07:40 | 7.31619 | 122.27678 | 12624 ft | 399 kts | 208° |
| 2026-05-08 07:41 | 7.29408 | 122.25974 | 12046 ft | 399 kts | 225° |
| 2026-05-08 07:41 | 7.27789 | 122.23748 | 11504 ft | 397 kts | 241° |
| 2026-05-08 07:41 | 7.26636 | 122.21228 | 11088 ft | 385 kts | 246° |
| 2026-05-08 07:41 | 7.25640 | 122.18841 | 10869 ft | 357 kts | 247° |
| 2026-05-08 07:42 | 7.24715 | 122.16622 | 10674 ft | 330 kts | 246° |
| 2026-05-08 07:42 | 7.23849 | 122.14581 | 10500 ft | 311 kts | 246° |
| 2026-05-08 07:42 | 7.22984 | 122.12579 | 10337 ft | 306 kts | 245° |
| 2026-05-08 07:42 | 7.22133 | 122.10628 | 10196 ft | 302 kts | 245° |
| 2026-05-08 07:43 | 7.21302 | 122.08729 | 10064 ft | 299 kts | 245° |
| 2026-05-08 07:43 | 7.20465 | 122.06820 | 9853 ft | 298 kts | 245° |
| 2026-05-08 07:43 | 7.19619 | 122.04891 | 9494 ft | 298 kts | 245° |
| 2026-05-08 07:43 | 7.18780 | 122.02982 | 9144 ft | 298 kts | 245° |
| 2026-05-08 07:44 | 7.17943 | 122.01075 | 8802 ft | 298 kts | 245° |
| 2026-05-08 07:44 | 7.17108 | 121.99170 | 8455 ft | 297 kts | 245° |
| 2026-05-08 07:44 | 7.16270 | 121.97260 | 8103 ft | 296 kts | 245° |
| 2026-05-08 07:44 | 7.15446 | 121.95382 | 7757 ft | 295 kts | 245° |
| 2026-05-08 07:45 | 7.14616 | 121.93491 | 7416 ft | 293 kts | 245° |
| 2026-05-08 07:45 | 7.13832 | 121.91707 | 7103 ft | 291 kts | 245° |
| 2026-05-08 07:45 | 7.13012 | 121.89838 | 6762 ft | 290 kts | 245° |
| 2026-05-08 07:45 | 7.12199 | 121.87991 | 6422 ft | 288 kts | 245° |
| 2026-05-08 07:46 | 7.11393 | 121.86164 | 6090 ft | 286 kts | 245° |
| 2026-05-08 07:46 | 7.10497 | 121.84380 | 5716 ft | 285 kts | 231° |
| 2026-05-08 07:46 | 7.08984 | 121.83189 | 5351 ft | 278 kts | 198° |
| 2026-05-08 07:46 | 7.07082 | 121.82939 | 5012 ft | 272 kts | 174° |
| 2026-05-08 07:47 | 7.05217 | 121.83083 | 4687 ft | 270 kts | 174° |
| 2026-05-08 07:47 | 7.03326 | 121.83210 | 4346 ft | 269 kts | 175° |
| 2026-05-08 07:47 | 7.01461 | 121.83315 | 4014 ft | 268 kts | 175° |
| 2026-05-08 07:47 | 6.99587 | 121.83409 | 3684 ft | 266 kts | 175° |
| 2026-05-08 07:48 | 6.97735 | 121.83497 | 3413 ft | 262 kts | 176° |
| 2026-05-08 07:48 | 6.95969 | 121.83581 | 3372 ft | 248 kts | 174° |
| 2026-05-08 07:48 | 6.94374 | 121.84049 | 3269 ft | 233 kts | 141° |
| 2026-05-08 07:48 | 6.93486 | 121.85313 | 3205 ft | 222 kts | 102° |
| 2026-05-08 07:49 | 6.93374 | 121.86839 | 3156 ft | 211 kts | 90° |
| 2026-05-08 07:49 | 6.93349 | 121.88280 | 3030 ft | 202 kts | 91° |
| 2026-05-08 07:49 | 6.93293 | 121.89667 | 2956 ft | 195 kts | 92° |
| 2026-05-08 07:49 | 6.93223 | 121.90990 | 2822 ft | 183 kts | 93° |
| 2026-05-08 07:50 | 6.93148 | 121.92236 | 2546 ft | 173 kts | 93° |
| 2026-05-08 07:50 | 6.93074 | 121.93407 | 2283 ft | 163 kts | 93° |
| 2026-05-08 07:50 | 6.93002 | 121.94505 | 2056 ft | 154 kts | 93° |
| 2026-05-08 07:50 | 6.92933 | 121.95564 | 1857 ft | 150 kts | 93° |
| 2026-05-08 07:51 | 6.92864 | 121.96616 | 1672 ft | 150 kts | 94° |
| 2026-05-08 07:51 | 6.92797 | 121.97659 | 1494 ft | 148 kts | 94° |
| 2026-05-08 07:51 | 6.92730 | 121.98666 | 1290 ft | 140 kts | 94° |
| 2026-05-08 07:51 | 6.92666 | 121.99629 | 1103 ft | 139 kts | 95° |
| 2026-05-08 07:52 | 6.92604 | 122.00597 | 915 ft | 138 kts | 95° |
| 2026-05-08 07:52 | 6.92528 | 122.01559 | 739 ft | 137 kts | 95° |
| 2026-05-08 07:52 | 6.92492 | 122.02516 | 566 ft | 138 kts | 93° |
| 2026-05-08 07:52 | 6.92426 | 122.03477 | 381 ft | 137 kts | 96° |
| 2026-05-08 07:53 | 6.92358 | 122.04436 | 195 ft | 136 kts | 96° |
| 2026-05-08 07:53 | 6.92299 | 122.05358 | 68 ft | 125 kts | 98° |
| 2026-05-08 07:53 | 6.92242 | 122.05958 | 66 ft | 41 kts | 94° |
| 2026-05-08 07:53 | 6.92232 | 122.06162 | 66 ft | 21 kts | 95° |
| 2026-05-08 07:54 | 6.92223 | 122.06241 | 66 ft | 4 kts | 111° |
| 2026-05-08 07:54 | 6.92198 | 122.06252 | 66 ft | 4 kts | 174° |
| 2026-05-08 07:54 | 6.92165 | 122.06251 | 66 ft | 4 kts | 182° |
| 2026-05-08 07:54 | 6.92146 | 122.06248 | 66 ft | 1 kts | 202° |
| 2026-05-08 07:55 | 6.92138 | 122.06237 | 66 ft | 3 kts | 245° |
| 2026-05-08 07:55 | 6.92134 | 122.06213 | 66 ft | 4 kts | 275° |
| 2026-05-08 07:55 | 6.92136 | 122.06179 | 66 ft | 5 kts | 275° |
| 2026-05-08 07:55 | 6.92140 | 122.06136 | 66 ft | 6 kts | 274° |
| 2026-05-08 07:56 | 6.92143 | 122.06082 | 66 ft | 7 kts | 274° |
| 2026-05-08 07:56 | 6.92135 | 122.06053 | 66 ft | 4 kts | 213° |
| 2026-05-08 07:56 | 6.92125 | 122.06052 | 66 ft | 1 kts | 172° |
| 2026-05-08 07:56 | 6.92112 | 122.06055 | 66 ft | 2 kts | 162° |
| 2026-05-08 07:57 | 6.92093 | 122.06062 | 66 ft | 2 kts | 156° |
| 2026-05-08 07:57 | 6.92075 | 122.06072 | 66 ft | 2 kts | 151° |
| 2026-05-08 07:57 | 6.92059 | 122.06081 | 66 ft | 0 kts | 153° |
| 2026-05-08 07:57 | 6.92058 | 122.06081 | 66 ft | 0 kts | 153° |